createdAt,value
2018-04-25T00:00:03.862Z,1025.36
2018-04-25T00:01:03.854Z,1025.34
2018-04-25T00:02:03.848Z,1025.35
2018-04-25T00:03:03.843Z,1025.32
2018-04-25T00:04:03.838Z,1025.3
2018-04-25T00:05:03.836Z,1025.29
2018-04-25T00:06:03.825Z,1025.32
2018-04-25T00:07:03.821Z,1025.33
2018-04-25T00:08:03.812Z,1025.33
2018-04-25T00:09:03.807Z,1025.32
2018-04-25T00:10:03.802Z,1025.3
2018-04-25T00:11:03.796Z,1025.24
2018-04-25T00:12:03.789Z,1025.22
2018-04-25T00:13:03.784Z,1025.2
2018-04-25T00:14:03.778Z,1025.16
2018-04-25T00:15:03.772Z,1025.13
2018-04-25T00:16:03.801Z,1025.09
2018-04-25T00:17:03.760Z,1025.14
2018-04-25T00:18:03.755Z,1025.12
2018-04-25T00:19:03.748Z,1025.14
2018-04-25T00:20:03.744Z,1025.13
2018-04-25T00:21:03.738Z,1025.12
2018-04-25T00:22:03.732Z,1025.09
2018-04-25T00:23:03.724Z,1025.08
2018-04-25T00:24:03.719Z,1025.07
2018-04-25T00:25:03.713Z,1025.07
2018-04-25T00:26:03.708Z,1025.04
2018-04-25T00:27:03.701Z,1025.02
2018-04-25T00:28:03.697Z,1025.07
2018-04-25T00:29:03.689Z,1025.01
2018-04-25T00:30:03.683Z,1024.99
2018-04-25T00:31:03.677Z,1024.96
2018-04-25T00:32:03.671Z,1025
2018-04-25T00:33:03.667Z,1024.96
2018-04-25T00:34:03.659Z,1024.99
2018-04-25T00:35:03.653Z,1025.01
2018-04-25T00:36:03.647Z,1025.01
2018-04-25T00:37:03.643Z,1025.04
2018-04-25T00:38:03.639Z,1024.98
2018-04-25T00:39:03.631Z,1024.99
2018-04-25T00:40:03.627Z,1025.03
2018-04-25T00:41:03.617Z,1025.01
2018-04-25T00:42:03.612Z,1025.01
2018-04-25T00:43:03.606Z,1025.02
2018-04-25T00:44:03.602Z,1025.03
2018-04-25T00:45:03.594Z,1025.04
2018-04-25T00:46:03.588Z,1024.99
2018-04-25T00:47:03.582Z,1024.96
2018-04-25T00:48:03.577Z,1024.93
2018-04-25T00:49:03.570Z,1024.9
2018-04-25T00:50:03.565Z,1024.86
2018-04-25T00:51:03.559Z,1024.82
2018-04-25T00:52:03.552Z,1024.79
2018-04-25T00:53:03.547Z,1024.74
2018-04-25T00:54:03.541Z,1024.7
2018-04-25T00:55:03.537Z,1024.72
2018-04-25T00:56:03.529Z,1024.7
2018-04-25T00:57:03.523Z,1024.69
2018-04-25T00:58:03.517Z,1024.71
2018-04-25T00:59:03.511Z,1024.68
2018-04-25T01:00:03.506Z,1024.64
2018-04-25T01:01:03.498Z,1024.63
2018-04-25T01:02:03.493Z,1024.67
2018-04-25T01:03:03.487Z,1024.64
2018-04-25T01:04:03.481Z,1024.64
2018-04-25T01:05:03.476Z,1024.69
2018-04-25T01:06:03.471Z,1024.64
2018-04-25T01:07:03.462Z,1024.65
2018-04-25T01:08:03.456Z,1024.63
2018-04-25T01:09:03.451Z,1024.61
2018-04-25T01:10:03.445Z,1024.61
2018-04-25T01:11:03.439Z,1024.57
2018-04-25T01:12:03.481Z,1024.57
2018-04-25T01:13:03.428Z,1024.5
2018-04-25T01:14:03.420Z,1024.49
2018-04-25T01:15:03.415Z,1024.46
2018-04-25T01:16:03.410Z,1024.38
2018-04-25T01:17:03.404Z,1024.37
2018-04-25T01:18:03.396Z,1024.34
2018-04-25T01:19:03.396Z,1024.35
2018-04-25T01:20:03.385Z,1024.36
2018-04-25T01:21:03.379Z,1024.37
2018-04-25T01:22:03.373Z,1024.36
2018-04-25T01:23:03.380Z,1024.31
2018-04-25T01:24:03.361Z,1024.29
2018-04-25T01:25:03.353Z,1024.24
2018-04-25T01:26:03.349Z,1024.22
2018-04-25T01:27:03.342Z,1024.18
2018-04-25T01:28:03.337Z,1024.15
2018-04-25T01:29:03.330Z,1024.15
2018-04-25T01:30:03.324Z,1024.09
2018-04-25T01:31:03.318Z,1024.13
2018-04-25T01:32:03.312Z,1024.12
2018-04-25T01:33:03.308Z,1024.14
2018-04-25T01:34:03.302Z,1024.07
2018-04-25T01:35:03.296Z,1024.11
2018-04-25T01:36:03.289Z,1024.08
2018-04-25T01:37:03.282Z,1024.04
2018-04-25T01:38:03.277Z,1024.04
2018-04-25T01:39:03.274Z,1024.02
2018-04-25T01:40:03.264Z,1024.02
2018-04-25T01:41:03.259Z,1024.01
2018-04-25T01:42:03.253Z,1024.03
2018-04-25T01:43:03.250Z,1024.01
2018-04-25T01:44:03.240Z,1024
2018-04-25T01:45:03.235Z,1023.99
2018-04-25T01:46:03.228Z,1023.9
2018-04-25T01:47:03.225Z,1023.84
2018-04-25T01:48:03.216Z,1023.86
2018-04-25T01:49:03.211Z,1023.85
2018-04-25T01:50:03.205Z,1023.82
2018-04-25T01:51:03.206Z,1023.79
2018-04-25T01:52:03.192Z,1023.66
2018-04-25T01:53:03.439Z,1023.63
2018-04-25T01:54:03.180Z,1023.68
2018-04-25T01:55:03.174Z,1023.68
2018-04-25T01:56:03.170Z,1023.65
2018-04-25T01:57:03.163Z,1023.66
2018-04-25T01:58:03.156Z,1023.63
2018-04-25T01:59:03.150Z,1023.6
2018-04-25T02:00:03.146Z,1023.59
2018-04-25T02:01:03.139Z,1023.57
2018-04-25T02:02:03.132Z,1023.54
2018-04-25T02:03:03.126Z,1023.55
2018-04-25T02:04:03.121Z,1023.57
2018-04-25T02:05:03.114Z,1023.56
2018-04-25T02:06:03.109Z,1023.55
2018-04-25T02:07:03.103Z,1023.58
2018-04-25T02:08:03.098Z,1023.54
2018-04-25T02:09:03.090Z,1023.51
2018-04-25T02:10:03.084Z,1023.5
2018-04-25T02:11:03.079Z,1023.48
2018-04-25T02:12:03.074Z,1023.48
2018-04-25T02:13:03.067Z,1023.43
2018-04-25T02:14:03.061Z,1023.43
2018-04-25T02:15:03.057Z,1023.43
2018-04-25T02:16:03.048Z,1023.42
2018-04-25T02:17:03.042Z,1023.42
2018-04-25T02:18:03.037Z,1023.35
2018-04-25T02:19:03.032Z,1023.3
2018-04-25T02:20:03.025Z,1023.28
2018-04-25T02:21:03.018Z,1023.27
2018-04-25T02:22:03.012Z,1023.25
2018-04-25T02:23:03.006Z,1023.26
2018-04-25T02:24:03.250Z,1023.31
2018-04-25T02:25:02.994Z,1023.3
2018-04-25T02:26:03.007Z,1023.26
2018-04-25T02:27:02.982Z,1023.19
2018-04-25T02:28:02.975Z,1023.16
2018-04-25T02:29:02.971Z,1023.13
2018-04-25T02:30:02.964Z,1023.13
2018-04-25T02:31:02.960Z,1023.12
2018-04-25T02:32:02.953Z,1023.12
2018-04-25T02:33:02.945Z,1023.08
2018-04-25T02:34:02.939Z,1023.03
2018-04-25T02:35:02.932Z,1023.06
2018-04-25T02:36:02.936Z,1023.03
2018-04-25T02:37:02.919Z,1022.99
2018-04-25T02:38:02.913Z,1023
2018-04-25T02:39:02.909Z,1022.95
2018-04-25T02:40:02.901Z,1022.92
2018-04-25T02:41:02.895Z,1022.89
2018-04-25T02:42:02.888Z,1022.84
2018-04-25T02:43:02.882Z,1022.85
2018-04-25T02:44:02.876Z,1022.82
2018-04-25T02:45:02.871Z,1022.81
2018-04-25T02:46:02.870Z,1022.8
2018-04-25T02:47:02.859Z,1022.78
2018-04-25T02:48:02.852Z,1022.79
2018-04-25T02:49:02.845Z,1022.76
2018-04-25T02:50:02.839Z,1022.77
2018-04-25T02:51:02.833Z,1022.79
2018-04-25T02:52:02.834Z,1022.79
2018-04-25T02:53:02.821Z,1022.81
2018-04-25T02:54:02.814Z,1022.79
2018-04-25T02:55:02.814Z,1022.74
2018-04-25T02:56:02.802Z,1022.75
2018-04-25T02:57:02.800Z,1022.7
2018-04-25T02:58:02.790Z,1022.7
2018-04-25T02:59:02.782Z,1022.71
2018-04-25T03:00:02.778Z,1022.68
2018-04-25T03:01:02.770Z,1022.63
2018-04-25T03:02:02.765Z,1022.67
2018-04-25T03:03:02.759Z,1022.64
2018-04-25T03:04:02.754Z,1022.67
2018-04-25T03:05:02.747Z,1022.66
2018-04-25T03:06:02.739Z,1022.63
2018-04-25T03:07:02.733Z,1022.61
2018-04-25T03:08:02.733Z,1022.57
2018-04-25T03:09:02.724Z,1022.57
2018-04-25T03:10:02.716Z,1022.54
2018-04-25T03:11:02.708Z,1022.47
2018-04-25T03:12:02.702Z,1022.46
2018-04-25T03:13:02.697Z,1022.5
2018-04-25T03:14:02.690Z,1022.5
2018-04-25T03:15:02.687Z,1022.53
2018-04-25T03:16:02.676Z,1022.49
2018-04-25T03:17:02.672Z,1022.44
2018-04-25T03:18:02.663Z,1022.43
2018-04-25T03:19:02.658Z,1022.42
2018-04-25T03:20:02.652Z,1022.42
2018-04-25T03:21:02.645Z,1022.39
2018-04-25T03:22:02.639Z,1022.42
2018-04-25T03:23:02.637Z,1022.41
2018-04-25T03:24:02.626Z,1022.44
2018-04-25T03:25:02.619Z,1022.44
2018-04-25T03:26:02.614Z,1022.39
2018-04-25T03:27:02.607Z,1022.35
2018-04-25T03:28:02.601Z,1022.37
2018-04-25T03:29:02.594Z,1022.36
2018-04-25T03:30:02.587Z,1022.29
2018-04-25T03:31:02.581Z,1022.31
2018-04-25T03:32:02.575Z,1022.23
2018-04-25T03:33:02.572Z,1022.16
2018-04-25T03:34:02.564Z,1022.07
2018-04-25T03:35:02.557Z,1022.11
2018-04-25T03:36:02.550Z,1022.15
2018-04-25T03:37:02.544Z,1022.17
2018-04-25T03:38:02.540Z,1022.16
2018-04-25T03:39:02.533Z,1022.16
2018-04-25T03:40:02.523Z,1022.14
2018-04-25T03:41:02.549Z,1022.12
2018-04-25T03:42:02.513Z,1022.05
2018-04-25T03:43:02.505Z,1022.03
2018-04-25T03:44:02.499Z,1022.01
2018-04-25T03:45:02.494Z,1022.01
2018-04-25T03:46:02.487Z,1022.01
2018-04-25T03:47:02.480Z,1022.01
2018-04-25T03:48:02.480Z,1021.98
2018-04-25T03:49:02.467Z,1021.94
2018-04-25T03:50:02.463Z,1021.94
2018-04-25T03:51:02.459Z,1021.89
2018-04-25T03:52:02.452Z,1021.89
2018-04-25T03:53:02.443Z,1021.84
2018-04-25T03:54:02.436Z,1021.8
2018-04-25T03:55:02.429Z,1021.78
2018-04-25T03:56:02.423Z,1021.78
2018-04-25T03:57:02.416Z,1021.81
2018-04-25T03:58:02.410Z,1021.77
2018-04-25T03:59:02.411Z,1021.71
2018-04-25T04:00:02.398Z,1021.72
2018-04-25T04:01:02.391Z,1021.64
2018-04-25T04:02:02.385Z,1021.61
2018-04-25T04:03:02.381Z,1021.61
2018-04-25T04:04:02.372Z,1021.6
2018-04-25T04:05:02.367Z,1021.59
2018-04-25T04:06:02.360Z,1021.56
2018-04-25T04:07:02.353Z,1021.56
2018-04-25T04:08:02.347Z,1021.5
2018-04-25T04:09:02.342Z,1021.5
2018-04-25T04:10:02.336Z,1021.51
2018-04-25T04:11:02.330Z,1021.51
2018-04-25T04:12:02.324Z,1021.52
2018-04-25T04:13:02.354Z,1021.47
2018-04-25T04:14:02.310Z,1021.42
2018-04-25T04:15:02.306Z,1021.42
2018-04-25T04:16:02.298Z,1021.39
2018-04-25T04:17:02.292Z,1021.39
2018-04-25T04:18:02.287Z,1021.34
2018-04-25T04:19:02.280Z,1021.29
2018-04-25T04:20:02.277Z,1021.29
2018-04-25T04:21:02.268Z,1021.26
2018-04-25T04:22:02.263Z,1021.25
2018-04-25T04:23:02.262Z,1021.23
2018-04-25T04:24:02.249Z,1021.18
2018-04-25T04:25:02.243Z,1021.17
2018-04-25T04:26:02.242Z,1021.15
2018-04-25T04:27:02.233Z,1021.12
2018-04-25T04:28:02.232Z,1021.14
2018-04-25T04:29:02.220Z,1021.1
2018-04-25T04:30:02.215Z,1021.09
2018-04-25T04:31:02.210Z,1021.08
2018-04-25T04:32:02.202Z,1021.04
2018-04-25T04:33:02.197Z,1021.04
2018-04-25T04:34:02.192Z,1021.03
2018-04-25T04:35:02.185Z,1021.01
2018-04-25T04:36:02.179Z,1021
2018-04-25T04:37:02.174Z,1021
2018-04-25T04:38:02.170Z,1020.96
2018-04-25T04:39:02.161Z,1020.92
2018-04-25T04:40:02.156Z,1020.83
2018-04-25T04:41:02.150Z,1020.8
2018-04-25T04:42:02.145Z,1020.83
2018-04-25T04:43:02.139Z,1020.82
2018-04-25T04:44:02.134Z,1020.84
2018-04-25T04:45:02.131Z,1020.82
2018-04-25T04:46:02.122Z,1020.8
2018-04-25T04:47:02.118Z,1020.82
2018-04-25T04:48:02.111Z,1020.75
2018-04-25T04:49:02.106Z,1020.74
2018-04-25T04:50:02.098Z,1020.7
2018-04-25T04:51:02.094Z,1020.65
2018-04-25T04:52:02.091Z,1020.62
2018-04-25T04:53:02.082Z,1020.6
2018-04-25T04:54:02.159Z,1020.58
2018-04-25T04:55:02.071Z,1020.55
2018-04-25T04:56:02.067Z,1020.6
2018-04-25T04:57:02.060Z,1020.58
2018-04-25T04:58:02.054Z,1020.54
2018-04-25T04:59:02.049Z,1020.53
2018-04-25T05:00:02.044Z,1020.54
2018-04-25T05:01:02.039Z,1020.51
2018-04-25T05:02:02.035Z,1020.52
2018-04-25T05:03:02.029Z,1020.49
2018-04-25T05:04:02.022Z,1020.43
2018-04-25T05:05:02.017Z,1020.43
2018-04-25T05:06:02.011Z,1020.41
2018-04-25T05:07:02.006Z,1020.42
2018-04-25T05:08:02.000Z,1020.36
2018-04-25T05:09:01.995Z,1020.32
2018-04-25T05:10:01.990Z,1020.28
2018-04-25T05:11:01.985Z,1020.21
2018-04-25T05:12:01.979Z,1020.18
2018-04-25T05:13:02.049Z,1020.18
2018-04-25T05:14:01.972Z,1020.13
2018-04-25T05:15:01.964Z,1020.11
2018-04-25T05:16:01.958Z,1020.12
2018-04-25T05:17:01.957Z,1020.08
2018-04-25T05:18:01.950Z,1020.08
2018-04-25T05:19:01.945Z,1020.01
2018-04-25T05:20:01.938Z,1019.85
2018-04-25T05:21:01.933Z,1019.82
2018-04-25T05:22:01.929Z,1019.75
2018-04-25T05:23:01.925Z,1019.82
2018-04-25T05:24:01.933Z,1019.81
2018-04-25T05:25:01.914Z,1019.8
2018-04-25T05:26:01.909Z,1019.82
2018-04-25T05:27:01.904Z,1019.79
2018-04-25T05:28:01.900Z,1019.79
2018-04-25T05:29:01.895Z,1019.74
2018-04-25T05:30:01.890Z,1019.68
2018-04-25T05:31:01.887Z,1019.58
2018-04-25T05:32:01.885Z,1019.51
2018-04-25T05:33:01.878Z,1019.51
2018-04-25T05:34:01.872Z,1019.44
2018-04-25T05:35:01.870Z,1019.41
2018-04-25T05:36:01.864Z,1019.4
2018-04-25T05:37:01.859Z,1019.38
2018-04-25T05:38:01.856Z,1019.36
2018-04-25T05:39:01.851Z,1019.38
2018-04-25T05:40:01.849Z,1019.32
2018-04-25T05:41:01.841Z,1019.27
2018-04-25T05:42:01.837Z,1019.27
2018-04-25T05:43:01.833Z,1019.31
2018-04-25T05:44:01.830Z,1019.25
2018-04-25T05:45:01.825Z,1019.23
2018-04-25T05:46:01.930Z,1019.25
2018-04-25T05:47:01.816Z,1019.21
2018-04-25T05:48:01.812Z,1019.11
2018-04-25T05:49:01.816Z,1019.11
2018-04-25T05:50:01.804Z,1019.02
2018-04-25T05:51:01.801Z,1018.94
2018-04-25T05:52:01.796Z,1018.87
2018-04-25T05:53:01.792Z,1018.73
2018-04-25T05:54:01.789Z,1018.62
2018-04-25T05:55:01.789Z,1018.48
2018-04-25T05:56:01.784Z,1018.46
2018-04-25T05:57:01.777Z,1018.44
2018-04-25T05:58:01.776Z,1018.5
2018-04-25T05:59:01.769Z,1018.53
2018-04-25T06:00:01.772Z,1018.63
2018-04-25T06:01:01.763Z,1018.61
2018-04-25T06:02:01.760Z,1018.68
2018-04-25T06:03:01.756Z,1018.67
2018-04-25T06:04:01.752Z,1018.71
2018-04-25T06:05:01.749Z,1018.72
2018-04-25T06:06:01.771Z,1018.69
2018-04-25T06:07:01.746Z,1018.69
2018-04-25T06:08:01.738Z,1018.67
2018-04-25T06:09:01.735Z,1018.76
2018-04-25T06:10:01.767Z,1018.76
2018-04-25T06:11:01.729Z,1018.77
2018-04-25T06:12:01.727Z,1018.78
2018-04-25T06:13:01.726Z,1018.77
2018-04-25T06:14:01.719Z,1018.76
2018-04-25T06:15:01.720Z,1018.8
2018-04-25T06:16:01.713Z,1018.82
2018-04-25T06:17:01.710Z,1018.79
2018-04-25T06:18:01.709Z,1018.75
2018-04-25T06:19:01.703Z,1018.74
2018-04-25T06:20:01.700Z,1018.71
2018-04-25T06:21:01.713Z,1018.56
2018-04-25T06:22:01.694Z,1018.42
2018-04-25T06:23:01.691Z,1018.4
2018-04-25T06:24:01.689Z,1018.23
2018-04-25T06:25:01.691Z,1018.15
2018-04-25T06:26:01.682Z,1018.13
2018-04-25T06:27:01.679Z,1018.14
2018-04-25T06:28:01.680Z,1018.1
2018-04-25T06:29:01.673Z,1018.09
2018-04-25T06:30:01.669Z,1018.09
2018-04-25T06:31:01.672Z,1018.03
2018-04-25T06:32:01.662Z,1018.03
2018-04-25T06:33:01.662Z,1017.98
2018-04-25T06:34:01.659Z,1017.88
2018-04-25T06:35:01.655Z,1017.92
2018-04-25T06:36:01.651Z,1017.91
2018-04-25T06:37:01.649Z,1017.87
2018-04-25T06:38:01.648Z,1017.85
2018-04-25T06:39:01.643Z,1017.87
2018-04-25T06:40:01.646Z,1017.92
2018-04-25T06:41:01.639Z,1017.98
2018-04-25T06:42:01.636Z,1017.96
2018-04-25T06:43:01.647Z,1017.96
2018-04-25T06:44:01.631Z,1017.94
2018-04-25T06:45:01.733Z,1017.92
2018-04-25T06:46:01.631Z,1017.82
2018-04-25T06:47:01.669Z,1017.75
2018-04-25T06:48:01.619Z,1017.7
2018-04-25T06:49:01.617Z,1017.72
2018-04-25T06:50:01.613Z,1017.78
2018-04-25T06:51:01.611Z,1017.83
2018-04-25T06:52:01.609Z,1017.85
2018-04-25T06:53:01.607Z,1017.88
2018-04-25T06:54:01.609Z,1017.92
2018-04-25T06:55:01.599Z,1017.98
2018-04-25T06:56:01.596Z,1017.9
2018-04-25T06:57:01.599Z,1017.94
2018-04-25T06:58:01.591Z,1017.94
2018-04-25T06:59:01.588Z,1017.9
2018-04-25T07:00:01.586Z,1017.93
2018-04-25T07:01:01.582Z,1017.97
2018-04-25T07:02:01.588Z,1017.97
2018-04-25T07:03:01.578Z,1018
2018-04-25T07:04:01.586Z,1017.99
2018-04-25T07:05:01.573Z,1017.95
2018-04-25T07:06:01.568Z,1017.95
2018-04-25T07:07:01.567Z,1017.9
2018-04-25T07:08:01.597Z,1017.87
2018-04-25T07:09:01.560Z,1017.89
2018-04-25T07:10:01.557Z,1017.87
2018-04-25T07:11:01.554Z,1017.91
2018-04-25T07:12:01.553Z,1017.88
2018-04-25T07:13:01.549Z,1017.96
2018-04-25T07:14:01.584Z,1017.94
2018-04-25T07:15:01.547Z,1017.87
2018-04-25T07:16:01.540Z,1017.81
2018-04-25T07:17:01.538Z,1017.75
2018-04-25T07:18:01.535Z,1017.92
2018-04-25T07:19:01.532Z,1017.92
2018-04-25T07:20:01.529Z,1017.93
2018-04-25T07:21:01.527Z,1017.95
2018-04-25T07:22:01.524Z,1018.01
2018-04-25T07:23:01.521Z,1018.01
2018-04-25T07:24:01.517Z,1018.05
2018-04-25T07:25:01.516Z,1018.16
2018-04-25T07:26:01.514Z,1018.17
2018-04-25T07:27:01.509Z,1018.24
2018-04-25T07:28:01.506Z,1018.25
2018-04-25T07:29:01.504Z,1018.18
2018-04-25T07:30:01.501Z,1018.17
2018-04-25T07:31:01.511Z,1018.1
2018-04-25T07:32:01.495Z,1018.12
2018-04-25T07:33:01.492Z,1018.08
2018-04-25T07:34:01.495Z,1018.13
2018-04-25T07:35:01.491Z,1018.1
2018-04-25T07:36:01.482Z,1018.16
2018-04-25T07:37:01.487Z,1018.15
2018-04-25T07:38:01.479Z,1018.23
2018-04-25T07:39:01.473Z,1018.24
2018-04-25T07:40:01.476Z,1018.29
2018-04-25T07:41:01.467Z,1018.33
2018-04-25T07:42:01.508Z,1018.34
2018-04-25T07:43:01.468Z,1018.45
2018-04-25T07:44:01.461Z,1018.45
2018-04-25T07:45:01.457Z,1018.53
2018-04-25T07:46:01.450Z,1018.56
2018-04-25T07:47:01.447Z,1018.66
2018-04-25T07:48:01.516Z,1018.67
2018-04-25T07:49:01.442Z,1018.71
2018-04-25T07:50:01.443Z,1018.68
2018-04-25T07:51:01.435Z,1018.71
2018-04-25T07:52:01.434Z,1018.69
2018-04-25T07:53:01.444Z,1018.62
2018-04-25T07:54:01.445Z,1018.67
2018-04-25T07:55:01.424Z,1018.63
2018-04-25T07:56:01.419Z,1018.67
2018-04-25T07:57:01.420Z,1018.68
2018-04-25T07:58:01.424Z,1018.71
2018-04-25T07:59:01.409Z,1018.73
2018-04-25T08:00:01.403Z,1018.76
2018-04-25T08:01:01.402Z,1018.82
2018-04-25T08:02:01.397Z,1018.77
2018-04-25T08:03:01.395Z,1018.82
2018-04-25T08:04:01.393Z,1018.84
2018-04-25T08:05:01.387Z,1018.86
2018-04-25T08:06:01.449Z,1018.9
2018-04-25T08:07:01.377Z,1018.96
2018-04-25T08:08:01.374Z,1018.96
2018-04-25T08:09:01.403Z,1019
2018-04-25T08:10:01.367Z,1018.97
2018-04-25T08:11:01.365Z,1019.02
2018-04-25T08:12:01.360Z,1019.01
2018-04-25T08:13:01.361Z,1019
2018-04-25T08:14:01.355Z,1018.98
2018-04-25T08:15:01.366Z,1018.94
2018-04-25T08:16:01.347Z,1018.9
2018-04-25T08:17:01.340Z,1018.88
2018-04-25T08:18:01.356Z,1018.77
2018-04-25T08:19:01.332Z,1018.77
2018-04-25T08:20:01.332Z,1018.75
2018-04-25T08:21:01.325Z,1018.73
2018-04-25T08:22:01.321Z,1018.69
2018-04-25T08:23:01.318Z,1018.66
2018-04-25T08:24:01.314Z,1018.71
2018-04-25T08:25:01.309Z,1018.64
2018-04-25T08:26:01.305Z,1018.6
2018-04-25T08:27:01.304Z,1018.43
2018-04-25T08:28:01.300Z,1018.4
2018-04-25T08:29:01.296Z,1018.28
2018-04-25T08:30:01.289Z,1018.12
2018-04-25T08:31:01.286Z,1018.01
2018-04-25T08:32:01.284Z,1017.81
2018-04-25T08:33:01.277Z,1017.64
2018-04-25T08:34:01.275Z,1017.49
2018-04-25T08:35:01.272Z,1017.22
2018-04-25T08:36:01.268Z,1017.07
2018-04-25T08:37:01.265Z,1016.91
2018-04-25T08:38:01.262Z,1016.81
2018-04-25T08:39:01.260Z,1016.75
2018-04-25T08:40:01.262Z,1016.79
2018-04-25T08:41:01.252Z,1016.82
2018-04-25T08:42:01.250Z,1016.89
2018-04-25T08:43:01.247Z,1016.88
2018-04-25T08:44:01.254Z,1016.87
2018-04-25T08:45:01.367Z,1016.89
2018-04-25T08:46:01.243Z,1016.91
2018-04-25T08:47:01.241Z,1016.94
2018-04-25T08:48:01.442Z,1016.96
2018-04-25T08:49:01.232Z,1016.96
2018-04-25T08:50:01.231Z,1016.97
2018-04-25T08:51:01.227Z,1016.99
2018-04-25T08:52:01.225Z,1016.98
2018-04-25T08:53:01.223Z,1017
2018-04-25T08:54:01.227Z,1017.1
2018-04-25T08:55:01.220Z,1017.1
2018-04-25T08:56:01.216Z,1017.08
2018-04-25T08:57:01.215Z,1017.12
2018-04-25T08:58:01.212Z,1017.07
2018-04-25T08:59:01.210Z,1017.1
2018-04-25T09:00:01.208Z,1017.07
2018-04-25T09:01:01.210Z,1017.11
2018-04-25T09:02:01.231Z,1017.1
2018-04-25T09:03:01.202Z,1017.16
2018-04-25T09:04:01.199Z,1017.16
2018-04-25T09:05:01.198Z,1017.14
2018-04-25T09:06:01.195Z,1017.06
2018-04-25T09:07:01.200Z,1017.03
2018-04-25T09:08:01.190Z,1016.91
2018-04-25T09:09:01.188Z,1016.81
2018-04-25T09:10:01.186Z,1016.69
2018-04-25T09:11:01.184Z,1016.52
2018-04-25T09:12:01.183Z,1016.28
2018-04-25T09:13:01.190Z,1016.07
2018-04-25T09:14:01.180Z,1015.87
2018-04-25T09:15:01.186Z,1015.76
2018-04-25T09:16:01.176Z,1015.63
2018-04-25T09:17:01.175Z,1015.48
2018-04-25T09:18:01.181Z,1015.42
2018-04-25T09:19:01.171Z,1015.23
2018-04-25T09:20:01.171Z,1015.1
2018-04-25T09:21:01.169Z,1015.03
2018-04-25T09:22:01.167Z,1014.99
2018-04-25T09:23:01.167Z,1014.89
2018-04-25T09:24:01.176Z,1014.82
2018-04-25T09:25:01.166Z,1014.78
2018-04-25T09:26:01.166Z,1014.7
2018-04-25T09:27:01.174Z,1014.76
2018-04-25T09:28:01.169Z,1014.66
2018-04-25T09:29:01.180Z,1014.64
2018-04-25T09:30:01.169Z,1014.6
2018-04-25T09:31:01.168Z,1014.58
2018-04-25T09:32:01.171Z,1014.4
2018-04-25T09:33:01.174Z,1014.32
2018-04-25T09:34:01.172Z,1014.15
2018-04-25T09:35:01.187Z,1014.11
2018-04-25T09:36:01.172Z,1014.09
2018-04-25T09:37:01.174Z,1014.07
2018-04-25T09:38:01.175Z,1014.06
2018-04-25T09:39:01.176Z,1014.09
2018-04-25T09:40:01.184Z,1013.91
2018-04-25T09:41:01.187Z,1014.03
2018-04-25T09:42:01.183Z,1014.13
2018-04-25T09:43:01.185Z,1014.19
2018-04-25T09:44:01.187Z,1014.27
2018-04-25T09:45:01.191Z,1014.35
2018-04-25T09:46:01.296Z,1014.46
2018-04-25T09:47:01.194Z,1014.6
2018-04-25T09:48:01.200Z,1014.66
2018-04-25T09:49:01.197Z,1014.63
2018-04-25T09:50:01.208Z,1014.72
2018-04-25T09:51:01.210Z,1014.64
2018-04-25T09:52:01.209Z,1014.5
2018-04-25T09:53:01.215Z,1014.47
2018-04-25T09:54:01.236Z,1014.36
2018-04-25T09:55:01.216Z,1014.4
2018-04-25T09:56:01.219Z,1014.37
2018-04-25T09:57:01.228Z,1014.39
2018-04-25T09:58:01.270Z,1014.18
2018-04-25T09:59:01.222Z,1014.11
2018-04-25T10:00:01.225Z,1014.12
2018-04-25T10:01:01.228Z,1014.06
2018-04-25T10:02:01.230Z,1013.94
2018-04-25T10:03:01.232Z,1013.91
2018-04-25T10:04:01.268Z,1014.04
2018-04-25T10:05:01.239Z,1014.1
2018-04-25T10:06:01.241Z,1014.12
2018-04-25T10:07:01.250Z,1014.07
2018-04-25T10:08:01.246Z,1014.09
2018-04-25T10:09:01.249Z,1014.17
2018-04-25T10:10:01.251Z,1014.2
2018-04-25T10:11:01.253Z,1014.22
2018-04-25T10:12:01.256Z,1014.26
2018-04-25T10:13:01.259Z,1014.12
2018-04-25T10:14:01.263Z,1014.19
2018-04-25T10:15:01.269Z,1014.1
2018-04-25T10:16:01.268Z,1014.07
2018-04-25T10:17:01.298Z,1014.24
2018-04-25T10:18:01.277Z,1014.28
2018-04-25T10:19:01.285Z,1014.31
2018-04-25T10:20:01.280Z,1014.34
2018-04-25T10:21:01.282Z,1014.46
2018-04-25T10:22:01.284Z,1014.49
2018-04-25T10:23:01.293Z,1014.57
2018-04-25T10:24:01.318Z,1014.74
2018-04-25T10:25:01.294Z,1014.66
2018-04-25T10:26:01.294Z,1014.61
2018-04-25T10:27:01.297Z,1014.45
2018-04-25T10:28:01.300Z,1014.5
2018-04-25T10:29:01.307Z,1014.48
2018-04-25T10:30:01.305Z,1014.63
2018-04-25T10:31:01.309Z,1014.56
2018-04-25T10:32:01.335Z,1014.34
2018-04-25T10:33:01.312Z,1014.36
2018-04-25T10:34:01.315Z,1014.15
2018-04-25T10:35:01.317Z,1014.12
2018-04-25T10:36:01.319Z,1014.17
2018-04-25T10:37:01.321Z,1014.02
2018-04-25T10:38:01.324Z,1013.9
2018-04-25T10:39:01.366Z,1013.71
2018-04-25T10:40:01.333Z,1013.56
2018-04-25T10:41:01.333Z,1013.48
2018-04-25T10:42:01.335Z,1013.43
2018-04-25T10:43:01.338Z,1013.53
2018-04-25T10:44:01.339Z,1013.53
2018-04-25T10:45:01.343Z,1013.51
2018-04-25T10:46:01.345Z,1013.54
2018-04-25T10:47:01.350Z,1013.52
2018-04-25T10:48:01.350Z,1013.61
2018-04-25T10:49:01.355Z,1013.66
2018-04-25T10:50:01.357Z,1013.72
2018-04-25T10:51:01.361Z,1013.86
2018-04-25T10:52:01.363Z,1014.05
2018-04-25T10:53:01.366Z,1014.11
2018-04-25T10:54:01.369Z,1014.17
2018-04-25T10:55:01.372Z,1014.2
2018-04-25T10:56:01.375Z,1014.18
2018-04-25T10:57:01.378Z,1014.06
2018-04-25T10:58:01.382Z,1014.13
2018-04-25T10:59:01.384Z,1014.18
2018-04-25T11:00:01.388Z,1014.01
2018-04-25T11:01:01.393Z,1013.84
2018-04-25T11:02:01.394Z,1013.75
2018-04-25T11:03:01.399Z,1013.8
2018-04-25T11:04:01.403Z,1013.9
2018-04-25T11:05:01.405Z,1013.93
2018-04-25T11:06:01.408Z,1014.02
2018-04-25T11:07:01.408Z,1014.04
2018-04-25T11:08:01.412Z,1014.07
2018-04-25T11:09:01.424Z,1014.26
2018-04-25T11:10:01.415Z,1014.25
2018-04-25T11:11:01.418Z,1014.27
2018-04-25T11:12:01.423Z,1014.22
2018-04-25T11:13:01.424Z,1014.25
2018-04-25T11:14:01.433Z,1014.19
2018-04-25T11:15:01.429Z,1014.28
2018-04-25T11:16:01.432Z,1014.28
2018-04-25T11:17:01.434Z,1014.48
2018-04-25T11:18:01.439Z,1014.57
2018-04-25T11:19:01.441Z,1014.69
2018-04-25T11:20:01.443Z,1014.54
2018-04-25T11:21:01.443Z,1014.58
2018-04-25T11:22:01.444Z,1014.58
2018-04-25T11:23:01.454Z,1014.39
2018-04-25T11:24:01.448Z,1014.07
2018-04-25T11:25:01.459Z,1014.15
2018-04-25T11:26:01.452Z,1014.19
2018-04-25T11:27:01.477Z,1014.23
2018-04-25T11:28:01.455Z,1014.26
2018-04-25T11:29:01.462Z,1014.39
2018-04-25T11:30:01.464Z,1014.39
2018-04-25T11:31:01.465Z,1014.65
2018-04-25T11:32:01.576Z,1014.96
2018-04-25T11:33:01.465Z,1015.19
2018-04-25T11:34:01.468Z,1015.45
2018-04-25T11:35:01.472Z,1015.87
2018-04-25T11:36:01.472Z,1016.18
2018-04-25T11:37:01.472Z,1016.43
2018-04-25T11:38:01.472Z,1016.94
2018-04-25T11:39:01.472Z,1017.09
2018-04-25T11:40:01.478Z,1017.48
2018-04-25T11:41:01.479Z,1017.9
2018-04-25T11:42:01.475Z,1018.06
2018-04-25T11:43:01.473Z,1018.25
2018-04-25T11:44:01.474Z,1018.27
2018-04-25T11:45:01.477Z,1018.13
2018-04-25T11:46:01.474Z,1017.89
2018-04-25T11:47:01.477Z,1017.97
2018-04-25T11:48:01.473Z,1017.9
2018-04-25T11:49:01.474Z,1017.79
2018-04-25T11:50:01.472Z,1017.72
2018-04-25T11:51:01.472Z,1017.79
2018-04-25T11:52:01.471Z,1017.74
2018-04-25T11:53:01.476Z,1017.92
2018-04-25T11:54:01.475Z,1018.29
2018-04-25T11:55:01.469Z,1018.44
2018-04-25T11:56:01.470Z,1018.68
2018-04-25T11:57:01.472Z,1018.74
2018-04-25T11:58:01.467Z,1018.87
2018-04-25T11:59:01.464Z,1018.92
2018-04-25T12:00:01.471Z,1018.99
2018-04-25T12:01:01.483Z,1019.02
2018-04-25T12:02:01.461Z,1019.02
2018-04-25T12:03:01.458Z,1018.94
2018-04-25T12:04:01.465Z,1019.1
2018-04-25T12:05:01.472Z,1019.04
2018-04-25T12:06:01.461Z,1019.04
2018-04-25T12:07:01.450Z,1019.05
2018-04-25T12:08:01.447Z,1018.92